Home > Products > Valid Products > TAF

000
FTUS43 KABR 032212 AAB
TAFMBG
TAF AMD
KMBG 032212Z 0322/0418 32007KT P6SM SKC
     FM041700 12015KT P6SM SKC=



000
FTUS43 KABR 032212 AAB
TAFMBG
TAF AMD
KMBG 032212Z 0322/0418 32007KT P6SM SKC
     FM041700 12015KT P6SM SKC=



000
FTUS43 KABR 032105 AAA
TAFMBG
TAF AMD
KMBG 032105Z 0321/0418 32007KT 4SM HZ SKC
     FM041700 12015KT P6SM SKC=



000
FTUS43 KABR 032105 AAA
TAFMBG
TAF AMD
KMBG 032105Z 0321/0418 32007KT 4SM HZ SKC
     FM041700 12015KT P6SM SKC=



000
FTUS43 KABR 031857 AAA
TAFABR
TAF AMD
KABR 031857Z 0319/0418 34011KT P6SM SKC
     FM040000 VRB05KT P6SM SKC=



000
FTUS43 KABR 031857 AAA
TAFABR
TAF AMD
KABR 031857Z 0319/0418 34011KT P6SM SKC
     FM040000 VRB05KT P6SM SKC=



000
FTUS43 KABR 031723
TAFMBG
TAF
KMBG 031723Z 0318/0418 VRB06KT P6SM SKC
     FM041700 12015KT P6SM SKC=



000
FTUS43 KABR 031723
TAFATY
TAF
KATY 031723Z 0318/0418 30008KT P6SM SKC
     FM040200 VRB04KT P6SM SKC=



000
FTUS43 KABR 031723
TAFPIR
TAF
KPIR 031723Z 0318/0418 VRB04KT P6SM SKC
     FM041600 12015KT P6SM SCT200=



000
FTUS43 KABR 031723
TAFABR
TAF
KABR 031723Z 0318/0418 VRB05KT P6SM SKC=



000
FTUS43 KABR 031128
TAFPIR
TAF
KPIR 031128Z 0312/0412 VRB06KT P6SM SKC
     FM031600 09006KT P6SM SKC=



000
FTUS43 KABR 031128
TAFABR
TAF
KABR 031128Z 0312/0412 VRB06KT P6SM SKC
     FM031700 34007KT P6SM FEW060
     FM040300 VRB04KT P6SM SKC=



000
FTUS43 KABR 031128
TAFMBG
TAF
KMBG 031128Z 0312/0412 VRB06KT P6SM SKC
     FM031700 03007KT P6SM SKC
     FM040100 08006KT P6SM SKC=



000
FTUS43 KABR 031128
TAFATY
TAF
KATY 031128Z 0312/0412 VRB06KT P6SM SKC
     FM031600 33010KT P6SM FEW060
     FM040200 VRB04KT P6SM SKC=



000
FTUS43 KABR 031128
TAFMBG
TAF
KMBG 031128Z 0312/0412 VRB06KT P6SM SKC
     FM031700 03007KT P6SM SKC
     FM040100 08006KT P6SM SKC=



000
FTUS43 KABR 031128
TAFATY
TAF
KATY 031128Z 0312/0412 VRB06KT P6SM SKC
     FM031600 33010KT P6SM FEW060
     FM040200 VRB04KT P6SM SKC=



000
FTUS43 KABR 031128
TAFPIR
TAF
KPIR 031128Z 0312/0412 VRB06KT P6SM SKC
     FM031600 09006KT P6SM SKC=



000
FTUS43 KABR 031128
TAFABR
TAF
KABR 031128Z 0312/0412 VRB06KT P6SM SKC
     FM031700 34007KT P6SM FEW060
     FM040300 VRB04KT P6SM SKC=



000
FTUS43 KABR 031101 AAA
TAFPIR
TAF AMD
KPIR 031101Z 0311/0406 VRB06KT P6SM SKC
     FM031600 09006KT P6SM SKC=



000
FTUS43 KABR 031101 AAA
TAFATY
TAF AMD
KATY 031101Z 0311/0406 VRB06KT P6SM SKC
     FM031600 33010KT P6SM FEW060
     FM040200 VRB04KT P6SM SKC=



000
FTUS43 KABR 031101 AAA
TAFMBG
TAF AMD
KMBG 031101Z 0311/0406 VRB06KT P6SM SKC
     FM031700 03007KT P6SM SKC
     FM040100 08006KT P6SM SKC=



000
FTUS43 KABR 031101 AAA
TAFABR
TAF AMD
KABR 031101Z 0311/0406 VRB06KT P6SM SKC
     FM031700 34007KT P6SM FEW060
     FM040300 VRB04KT P6SM SKC=



000
FTUS43 KABR 031101 AAA
TAFPIR
TAF AMD
KPIR 031101Z 0311/0406 VRB06KT P6SM SKC
     FM031600 09006KT P6SM SKC=



000
FTUS43 KABR 031101 AAA
TAFATY
TAF AMD
KATY 031101Z 0311/0406 VRB06KT P6SM SKC
     FM031600 33010KT P6SM FEW060
     FM040200 VRB04KT P6SM SKC=



000
FTUS43 KABR 031101 AAA
TAFABR
TAF AMD
KABR 031101Z 0311/0406 VRB06KT P6SM SKC
     FM031700 34007KT P6SM FEW060
     FM040300 VRB04KT P6SM SKC=



000
FTUS43 KABR 031101 AAA
TAFMBG
TAF AMD
KMBG 031101Z 0311/0406 VRB06KT P6SM SKC
     FM031700 03007KT P6SM SKC
     FM040100 08006KT P6SM SKC=



000
FTUS43 KABR 030536
TAFMBG
TAF
KMBG 030536Z 0306/0406 VRB05KT P6SM SKC
     FM031700 03007KT P6SM SKC=



000
FTUS43 KABR 030536
TAFPIR
TAF
KPIR 030536Z 0306/0406 VRB04KT P6SM SKC
     FM031700 07006KT P6SM SKC=



000
FTUS43 KABR 030536
TAFATY
TAF
KATY 030536Z 0306/0406 VRB04KT P6SM SKC
     FM031700 33010KT P6SM FEW060
     FM040300 VRB04KT P6SM SKC=



000
FTUS43 KABR 030536
TAFABR
TAF
KABR 030536Z 0306/0406 VRB04KT P6SM SKC
     FM031700 34007KT P6SM FEW060
     FM040300 VRB04KT P6SM SKC=



000
FTUS43 KABR 022324
TAFMBG
TAF
KMBG 022324Z 0300/0324 01008KT P6SM SKC
     FM030400 VRB05KT P6SM SKC
     FM031700 03007KT P6SM SKC=



000
FTUS43 KABR 022324
TAFATY
TAF
KATY 022324Z 0300/0324 34014KT P6SM FEW060
     FM030300 VRB04KT P6SM SKC
     FM031600 33010KT P6SM SKC=



000
FTUS43 KABR 022324
TAFPIR
TAF
KPIR 022324Z 0300/0324 01010KT P6SM SKC
     FM030300 VRB04KT P6SM SKC
     FM031700 07006KT P6SM SKC=



000
FTUS43 KABR 022324
TAFABR
TAF
KABR 022324Z 0300/0324 36008KT P6SM FEW060
     FM030300 VRB04KT P6SM SKC
     FM031600 34007KT P6SM SKC=



000
FTUS43 KABR 021803 AAA
TAFATY
TAF AMD
KATY 021803Z 0218/0318 34016G23KT P6SM SKC
     FM030200 VRB04KT P6SM SKC
     FM031700 32011KT P6SM SKC=



000
FTUS43 KABR 021726
TAFATY
TAF
KATY 021726Z 0218/0318 36016G23KT P6SM SKC
     FM030200 VRB04KT P6SM SKC
     FM031700 32011KT P6SM SKC=



000
FTUS43 KABR 021726
TAFMBG
TAF
KMBG 021726Z 0218/0318 35014KT P6SM SKC
     FM030200 VRB05KT P6SM SKC=



000
FTUS43 KABR 021726
TAFPIR
TAF
KPIR 021726Z 0218/0318 01015KT P6SM SKC
     FM030200 VRB05KT P6SM SKC=



000
FTUS43 KABR 021726
TAFABR
TAF
KABR 021726Z 0218/0318 35012KT P6SM SKC
     FM030200 VRB04KT P6SM SKC=



000
FTUS43 KABR 021726
TAFPIR
TAF
KPIR 021726Z 0218/0318 01015KT P6SM SKC
     FM030200 VRB05KT P6SM SKC=



000
FTUS43 KABR 021726
TAFABR
TAF
KABR 021726Z 0218/0318 35012KT P6SM SKC
     FM030200 VRB04KT P6SM SKC=



000
FTUS43 KABR 021726
TAFATY
TAF
KATY 021726Z 0218/0318 36016G23KT P6SM SKC
     FM030200 VRB04KT P6SM SKC
     FM031700 32011KT P6SM SKC=



000
FTUS43 KABR 021726
TAFMBG
TAF
KMBG 021726Z 0218/0318 35014KT P6SM SKC
     FM030200 VRB05KT P6SM SKC=



000
FTUS43 KABR 021719 AAB
TAFABR
TAF AMD
KABR 021719Z 0217/0312 01015KT P6SM SKC
     FM030000 35007KT P6SM SKC=



000
FTUS43 KABR 021719 AAB
TAFABR
TAF AMD
KABR 021719Z 0217/0312 01015KT P6SM SKC
     FM030000 35007KT P6SM SKC=



000
FTUS43 KABR 021708 AAA
TAFPIR
TAF AMD
KPIR 021708Z 0217/0312 03015KT P6SM SKC
     FM022300 02008KT P6SM SKC=



000
FTUS43 KABR 021708 AAA
TAFPIR
TAF AMD
KPIR 021708Z 0217/0312 03015KT P6SM SKC
     FM022300 02008KT P6SM SKC=



000
FTUS43 KABR 021505 AAB
TAFMBG
TAF AMD
KMBG 021505Z 0215/0312 34014G20KT P6SM SKC
      TEMPO 0215/0217 35008KT
     FM030000 02008KT P6SM SKC=



000
FTUS43 KABR 021504 AAB
TAFATY
TAF AMD
KATY 021504Z 0215/0312 35015KT P6SM SKC
     FM021600 34016G23KT P6SM SKC
     FM030100 34008KT P6SM SKC=



000
FTUS43 KABR 021257 AAA
TAFATY
TAF AMD
KATY 021257Z 0213/0312 29009KT P6SM SKC
     FM021400 32011KT P6SM SKC
     FM021600 34016G23KT P6SM SKC
     FM030100 34008KT P6SM SKC=



000
FTUS43 KABR 021257 AAA
TAFATY
TAF AMD
KATY 021257Z 0213/0312 29009KT P6SM SKC
     FM021400 32011KT P6SM SKC
     FM021600 34016G23KT P6SM SKC
     FM030100 34008KT P6SM SKC=



000
FTUS43 KABR 021256 AAA
TAFMBG
TAF AMD
KMBG 021256Z 0213/0312 34014G20KT P6SM SKC
     FM030000 02008KT P6SM SKC=



000
FTUS43 KABR 021256 AAA
TAFMBG
TAF AMD
KMBG 021256Z 0213/0312 34014G20KT P6SM SKC
     FM030000 02008KT P6SM SKC=



000
FTUS43 KABR 021247 AAA
TAFABR
TAF AMD
KABR 021247Z 0213/0312 34015G23KT P6SM SKC
     FM030000 35007KT P6SM SKC=



000
FTUS43 KABR 021247 AAA
TAFABR
TAF AMD
KABR 021247Z 0213/0312 34015G23KT P6SM SKC
     FM030000 35007KT P6SM SKC=



000
FTUS43 KABR 021127
TAFPIR
TAF
KPIR 021127Z 0212/0312 26010KT P6SM SKC
     FM021300 34012KT P6SM SKC
     FM021600 36015G21KT P6SM SKC
     FM022300 02008KT P6SM SKC=



000
FTUS43 KABR 021127
TAFABR
TAF
KABR 021127Z 0212/0312 32011KT P6SM SKC
     FM021400 35010KT P6SM SKC
     FM021600 35015G25KT P6SM SKC
     FM030000 35007KT P6SM SKC=



000
FTUS43 KABR 021127
TAFPIR
TAF
KPIR 021127Z 0212/0312 26010KT P6SM SKC
     FM021300 34012KT P6SM SKC
     FM021600 36015G21KT P6SM SKC
     FM022300 02008KT P6SM SKC=



000
FTUS43 KABR 021127
TAFABR
TAF
KABR 021127Z 0212/0312 32011KT P6SM SKC
     FM021400 35010KT P6SM SKC
     FM021600 35015G25KT P6SM SKC
     FM030000 35007KT P6SM SKC=



000
FTUS43 KABR 021127
TAFATY
TAF
KATY 021127Z 0212/0312 23006KT P6SM SKC
     FM021400 32011KT P6SM SKC
     FM021600 34016G23KT P6SM SKC
     FM030100 34008KT P6SM SKC=



000
FTUS43 KABR 021127
TAFATY
TAF
KATY 021127Z 0212/0312 23006KT P6SM SKC
     FM021400 32011KT P6SM SKC
     FM021600 34016G23KT P6SM SKC
     FM030100 34008KT P6SM SKC=



000
FTUS43 KABR 021127
TAFMBG
TAF
KMBG 021127Z 0212/0312 35014G22KT P6SM SKC
     FM030000 02008KT P6SM SKC=



000
FTUS43 KABR 020526
TAFABR
TAF
KABR 020526Z 0206/0306 VRB06KT P6SM SKC
     FM021400 35010KT P6SM SKC
     FM021600 35015G25KT P6SM SKC=



000
FTUS43 KABR 020526
TAFATY
TAF
KATY 020526Z 0206/0306 24006KT P6SM SKC
     FM021400 34014KT P6SM SKC
     FM021600 35016G23KT P6SM SKC=



000
FTUS43 KABR 020526
TAFPIR
TAF
KPIR 020526Z 0206/0306 24008KT P6SM SKC
     FM021300 33012KT P6SM SKC
     FM021600 36015G21KT P6SM SKC=



000
FTUS43 KABR 020526
TAFMBG
TAF
KMBG 020526Z 0206/0306 VRB06KT P6SM SKC
     FM021300 36010KT P6SM SKC
     FM021600 35015G22KT P6SM SKC=



000
FTUS43 KABR 020205 AAA
TAFATY
TAF AMD
KATY 020205Z 0202/0224 22008KT P6SM SKC
     FM020500 VRB06KT P6SM SKC
     FM021400 34014KT P6SM SKC=



000
FTUS43 KABR 020203 AAA
TAFMBG
TAF AMD
KMBG 020203Z 0202/0224 VRB06KT P6SM SKC
     FM021000 34007KT P6SM SKC
     FM021600 35015G22KT P6SM SKC=



000
FTUS43 KABR 020203 AAA
TAFMBG
TAF AMD
KMBG 020203Z 0202/0224 VRB06KT P6SM SKC
     FM021000 34007KT P6SM SKC
     FM021600 35015G22KT P6SM SKC=



000
FTUS43 KABR 020202 AAA
TAFPIR
TAF AMD
KPIR 020202Z 0202/0224 34007KT P6SM SKC
     FM020400 VRB06KT P6SM SKC
     FM021500 35016KT P6SM SKC=



000
FTUS43 KABR 020202 AAA
TAFPIR
TAF AMD
KPIR 020202Z 0202/0224 34007KT P6SM SKC
     FM020400 VRB06KT P6SM SKC
     FM021500 35016KT P6SM SKC=



000
FTUS43 KABR 020041 AAA
TAFABR
TAF AMD
KABR 020041Z 0201/0224 VRB06KT P6SM FEW060
     FM021400 35012KT P6SM SKC
     FM022100 35015G25KT P6SM SKC=



000
FTUS43 KABR 020041 AAA
TAFABR
TAF AMD
KABR 020041Z 0201/0224 VRB06KT P6SM FEW060
     FM021400 35012KT P6SM SKC
     FM022100 35015G25KT P6SM SKC=



000
FTUS43 KABR 012337
TAFATY
TAF
KATY 012337Z 0200/0224 23014KT P6SM SCT060
     FM020100 25010KT P6SM VCTS SCT050CB
     FM020300 29006KT P6SM SKC
     FM021600 34014KT P6SM SKC=



000
FTUS43 KABR 012337
TAFPIR
TAF
KPIR 012337Z 0200/0224 32015KT P6SM SCT070
     FM020300 VRB06KT P6SM SKC
     FM021500 35016KT P6SM SKC=



000
FTUS43 KABR 012337
TAFMBG
TAF
KMBG 012337Z 0200/0224 32010KT P6SM FEW070
     FM020200 VRB06KT P6SM SKC
     FM021300 35016G22KT P6SM SKC=



000
FTUS43 KABR 012337
TAFATY
TAF
KATY 012337Z 0200/0224 23014KT P6SM SCT060
     FM020100 25010KT P6SM VCTS SCT050CB
     FM020300 29006KT P6SM SKC
     FM021600 34014KT P6SM SKC=



000
FTUS43 KABR 012337
TAFABR
TAF
KABR 012337Z 0200/0224 18008KT P6SM VCTS SCT060CB
     FM020100 VRB06KT P6SM FEW080
     FM020200 32009KT P6SM SKC
     FM021500 35016KT P6SM SKC=



000
FTUS43 KABR 012337
TAFPIR
TAF
KPIR 012337Z 0200/0224 32015KT P6SM SCT070
     FM020300 VRB06KT P6SM SKC
     FM021500 35016KT P6SM SKC=



000
FTUS43 KABR 012337
TAFABR
TAF
KABR 012337Z 0200/0224 18008KT P6SM VCTS SCT060CB
     FM020100 VRB06KT P6SM FEW080
     FM020200 32009KT P6SM SKC
     FM021500 35016KT P6SM SKC=



000
FTUS43 KABR 012337
TAFMBG
TAF
KMBG 012337Z 0200/0224 32010KT P6SM FEW070
     FM020200 VRB06KT P6SM SKC
     FM021300 35016G22KT P6SM SKC=



000
FTUS43 KABR 012212 AAC
TAFABR
TAF AMD
KABR 012212Z 0122/0218 23012KT P6SM SCT060
     FM012300 31010KT P6SM SCT060
     FM020100 VRB06KT P6SM FEW250
     FM021500 35016KT P6SM SKC=



000
FTUS43 KABR 012010 AAB
TAFPIR
TAF AMD
KPIR 012010Z 0120/0218 26018G28KT P6SM SKC
     FM012200 32017KT P6SM SCT070
     FM020300 VRB06KT P6SM FEW250
     FM021500 35016KT P6SM SKC=



000
FTUS43 KABR 012007 AAB
TAFABR
TAF AMD
KABR 012007Z 0120/0218 23014G23KT P6SM SCT060
     FM012300 31010KT P6SM SCT060
     FM020100 VRB06KT P6SM FEW250
     FM021500 35016KT P6SM SKC=



000
FTUS43 KABR 012007 AAB
TAFABR
TAF AMD
KABR 012007Z 0120/0218 23014G23KT P6SM SCT060
     FM012300 31010KT P6SM SCT060
     FM020100 VRB06KT P6SM FEW250
     FM021500 35016KT P6SM SKC=



000
FTUS43 KABR 011918 AAA
TAFMBG
TAF AMD
KMBG 011918Z 0119/0218 32011KT P6SM FEW070
     FM020200 VRB06KT P6SM SKC
     FM021300 35016G22KT P6SM SKC=



000
FTUS43 KABR 011915 AAA
TAFPIR
TAF AMD
KPIR 011915Z 0119/0218 26015G25KT P6SM SKC
     FM012100 32015KT P6SM SCT070
     FM020300 VRB06KT P6SM FEW250
     FM021500 35016KT P6SM SKC=



000
FTUS43 KABR 011739
TAFATY
TAF
KATY 011739Z 0118/0218 19013KT P6SM VCSH SCT120
     FM011900 19013KT P6SM SCT060
     FM020000 23010KT P6SM SCT060
     FM021600 34014KT P6SM SKC=



000
FTUS43 KABR 011739
TAFMBG
TAF
KMBG 011739Z 0118/0218 27010KT P6SM SKC
     FM012000 32011KT P6SM FEW080
     FM020200 VRB06KT P6SM SKC
     FM021300 35016G22KT P6SM SKC=



000
FTUS43 KABR 011739
TAFABR
TAF
KABR 011739Z 0118/0218 18012KT P6SM FEW060 FEW150
     FM012100 23012KT P6SM SCT060
     FM012300 31010KT P6SM SCT060
     FM020100 VRB06KT P6SM FEW250
     FM021500 35016KT P6SM SKC=



000
FTUS43 KABR 011739
TAFPIR
TAF
KPIR 011739Z 0118/0218 21016G24KT P6SM SKC
     FM012000 30013KT P6SM SCT070
     FM020300 VRB06KT P6SM FEW250
     FM021500 35016KT P6SM SKC=



000
FTUS43 KABR 011603 AAA
TAFPIR
TAF AMD
KPIR 011603Z 0116/0212 21018G26KT P6SM FEW150
     FM011800 24015KT P6SM BKN250
     FM012100 33013KT P6SM SCT250
     FM020300 VRB06KT P6SM SCT250=



000
FTUS43 KABR 011603 AAA
TAFPIR
TAF AMD
KPIR 011603Z 0116/0212 21018G26KT P6SM FEW150
     FM011800 24015KT P6SM BKN250
     FM012100 33013KT P6SM SCT250
     FM020300 VRB06KT P6SM SCT250=



000
FTUS43 KABR 011134
TAFATY
TAF
KATY 011134Z 0112/0212 VRB06KT P6SM SCT150
     FM011800 19008KT P6SM SCT050
     FM020000 21012KT P6SM SKC=



000
FTUS43 KABR 011134
TAFPIR
TAF
KPIR 011134Z 0112/0212 20007KT P6SM VCTS FEW090 BKN120CB
     FM011500 21007KT P6SM FEW150
     FM011800 26011KT P6SM BKN250
     FM012200 33013KT P6SM SCT250
     FM020300 VRB06KT P6SM SCT250=



000
FTUS43 KABR 011134
TAFABR
TAF
KABR 011134Z 0112/0212 VRB06KT P6SM SCT150
     FM011800 18010KT P6SM SCT060
     FM012100 27011KT P6SM SCT250
     FM020100 VRB06KT P6SM SCT250=



000
FTUS43 KABR 011134
TAFMBG
TAF
KMBG 011134Z 0112/0212 09007KT P6SM FEW150
     FM011400 16008KT P6SM SKC
     FM011900 32010KT P6SM SKC
     FM020300 VRB06KT P6SM SKC=



000
FTUS43 KABR 011134
TAFATY
TAF
KATY 011134Z 0112/0212 VRB06KT P6SM SCT150
     FM011800 19008KT P6SM SCT050
     FM020000 21012KT P6SM SKC=



000
FTUS43 KABR 011134
TAFPIR
TAF
KPIR 011134Z 0112/0212 20007KT P6SM VCTS FEW090 BKN120CB
     FM011500 21007KT P6SM FEW150
     FM011800 26011KT P6SM BKN250
     FM012200 33013KT P6SM SCT250
     FM020300 VRB06KT P6SM SCT250=



000
FTUS43 KABR 011134
TAFMBG
TAF
KMBG 011134Z 0112/0212 09007KT P6SM FEW150
     FM011400 16008KT P6SM SKC
     FM011900 32010KT P6SM SKC
     FM020300 VRB06KT P6SM SKC=



000
FTUS43 KABR 011134
TAFABR
TAF
KABR 011134Z 0112/0212 VRB06KT P6SM SCT150
     FM011800 18010KT P6SM SCT060
     FM012100 27011KT P6SM SCT250
     FM020100 VRB06KT P6SM SCT250=



000
FTUS43 KABR 010734 AAA
TAFMBG
TAF AMD
KMBG 010734Z 0108/0206 10007KT P6SM VCSH SCT100 BKN120
     FM011200 16007KT P6SM SKC
     FM011800 28008KT P6SM SCT250
     FM012100 31010KT P6SM SKC=



000
FTUS43 KABR 010734 AAA
TAFMBG
TAF AMD
KMBG 010734Z 0108/0206 10007KT P6SM VCSH SCT100 BKN120
     FM011200 16007KT P6SM SKC
     FM011800 28008KT P6SM SCT250
     FM012100 31010KT P6SM SKC=



000
FTUS43 KABR 010541
TAFABR
TAF
KABR 010541Z 0106/0206 21003KT P6SM SKC
     FM010800 VRB03KT P6SM SCT100
     FM011800 15010KT P6SM SCT060
     FM012100 18011KT P6SM SCT250=



000
FTUS43 KABR 010541
TAFMBG
TAF
KMBG 010541Z 0106/0206 12003KT P6SM SKC
     FM010800 14005KT P6SM SCT100
     FM011800 28008KT P6SM SCT250
     FM012100 31010KT P6SM SKC=



000
FTUS43 KABR 010541
TAFATY
TAF
KATY 010541Z 0106/0206 24007KT P6SM SKC
     FM011000 VRB03KT P6SM SCT100
     FM011800 19008KT P6SM SCT050
     FM020000 21012KT P6SM SKC=



000
FTUS43 KABR 010541
TAFPIR
TAF
KPIR 010541Z 0106/0206 17003KT P6SM SKC
     FM010700 15004KT P6SM BKN120
     FM011800 24011KT P6SM BKN250
     FM012100 33013KT P6SM SCT250=



    US Dept of Commerce
    National Oceanic and Atmospheric Administration
    National Weather Service
    1325 East West Highway
    Silver Spring, MD 20910
    Page Author: NWS Internet Services Team
Disclaimer
Information Quality
Credits
Glossary
Privacy Policy
Freedom of Information Act (FOIA)
About Us
Career Opportunities